createdAt,value
2023-05-11T00:00:18.547Z,0.59
2023-05-11T00:01:18.410Z,0.59
2023-05-11T00:02:18.485Z,0.75
2023-05-11T00:03:18.586Z,0.68
2023-05-11T00:04:18.574Z,0.67
2023-05-11T00:05:18.553Z,0.80
2023-05-11T00:06:18.557Z,0.82
2023-05-11T00:07:18.567Z,0.87
2023-05-11T00:08:18.590Z,0.49
2023-05-11T00:09:18.607Z,1.00
2023-05-11T00:10:18.887Z,0.84
2023-05-11T00:11:18.675Z,0.60
2023-05-11T00:12:18.665Z,0.76
2023-05-11T00:13:18.692Z,0.71
2023-05-11T00:14:18.756Z,0.49
2023-05-11T00:15:18.778Z,0.59
2023-05-11T00:16:18.802Z,0.87
2023-05-11T00:17:18.821Z,0.68
2023-05-11T00:18:18.858Z,0.88
2023-05-11T00:19:18.846Z,0.52
2023-05-11T00:20:19.042Z,0.49
2023-05-11T00:21:18.930Z,0.63
2023-05-11T00:22:18.911Z,0.62
2023-05-11T00:23:18.982Z,0.78
2023-05-11T00:24:18.993Z,0.57
2023-05-11T00:25:19.009Z,0.81
2023-05-11T00:26:19.052Z,0.64
2023-05-11T00:27:19.043Z,0.95
2023-05-11T00:28:19.087Z,0.78
2023-05-11T00:29:19.132Z,0.54
2023-05-11T00:30:19.295Z,0.64
2023-05-11T00:31:19.198Z,0.80
2023-05-11T00:32:19.258Z,0.53
2023-05-11T00:33:19.204Z,0.94
2023-05-11T00:34:19.279Z,0.43
2023-05-11T00:35:19.404Z,0.53
2023-05-11T00:36:19.321Z,0.74
2023-05-11T00:37:19.334Z,0.59
2023-05-11T00:38:19.370Z,0.82
2023-05-11T00:39:19.399Z,0.58
2023-05-11T00:40:19.624Z,0.69
2023-05-11T00:41:19.467Z,0.78
2023-05-11T00:42:19.478Z,1.11
2023-05-11T00:43:19.503Z,0.59
2023-05-11T00:44:19.515Z,0.66
2023-05-11T00:45:19.532Z,0.68
2023-05-11T00:46:19.625Z,0.68
2023-05-11T00:47:19.587Z,0.37
2023-05-11T00:48:19.590Z,0.53
2023-05-11T00:49:19.649Z,0.73
2023-05-11T00:50:19.784Z,0.64
2023-05-11T00:51:19.683Z,0.82
2023-05-11T00:52:19.686Z,0.69
2023-05-11T00:53:19.718Z,0.81
2023-05-11T00:54:19.755Z,0.89
2023-05-11T00:55:19.763Z,0.47
2023-05-11T00:56:19.827Z,0.72
2023-05-11T00:57:19.855Z,0.70
2023-05-11T00:58:19.868Z,0.88
2023-05-11T00:59:19.907Z,0.70
2023-05-11T01:00:20.248Z,0.97
2023-05-11T01:01:19.982Z,0.62
2023-05-11T01:02:20.016Z,0.70
2023-05-11T01:03:19.992Z,0.33
2023-05-11T01:04:20.045Z,0.61
2023-05-11T01:05:20.063Z,0.59
2023-05-11T01:06:20.080Z,0.68
2023-05-11T01:07:20.105Z,0.91
2023-05-11T01:08:20.117Z,0.54
2023-05-11T01:09:20.148Z,0.73
2023-05-11T01:10:20.354Z,0.61
2023-05-11T01:11:20.271Z,0.66
2023-05-11T01:12:20.209Z,0.83
2023-05-11T01:13:20.259Z,0.52
2023-05-11T01:14:20.275Z,0.73
2023-05-11T01:15:20.301Z,0.82
2023-05-11T01:16:20.403Z,0.58
2023-05-11T01:17:20.357Z,0.89
2023-05-11T01:18:20.490Z,0.75
2023-05-11T01:19:20.415Z,0.46
2023-05-11T01:20:20.629Z,0.68
2023-05-11T01:21:20.452Z,0.66
2023-05-11T01:22:20.480Z,0.43
2023-05-11T01:23:20.491Z,0.72
2023-05-11T01:24:20.519Z,0.81
2023-05-11T01:25:20.537Z,0.44
2023-05-11T01:26:20.575Z,0.91
2023-05-11T01:27:20.600Z,0.65
2023-05-11T01:28:20.634Z,0.63
2023-05-11T01:29:20.660Z,0.55
2023-05-11T01:30:20.674Z,0.35
2023-05-11T01:31:20.785Z,0.83
2023-05-11T01:32:20.738Z,0.70
2023-05-11T01:33:20.756Z,0.77
2023-05-11T01:34:20.805Z,0.88
2023-05-11T01:35:20.818Z,0.64
2023-05-11T01:36:20.851Z,0.88
2023-05-11T01:37:20.852Z,0.55
2023-05-11T01:38:20.884Z,0.58
2023-05-11T01:39:20.921Z,0.52
2023-05-11T01:40:20.915Z,0.73
2023-05-11T01:41:20.959Z,0.66
2023-05-11T01:42:21.002Z,0.60
2023-05-11T01:43:20.988Z,0.63
2023-05-11T01:44:21.029Z,0.88
2023-05-11T01:45:21.082Z,0.58
2023-05-11T01:46:21.120Z,0.66
2023-05-11T01:47:21.130Z,0.62
2023-05-11T01:48:21.154Z,0.76
2023-05-11T01:49:21.170Z,0.84
2023-05-11T01:50:21.339Z,0.76
2023-05-11T01:51:21.256Z,1.36
2023-05-11T01:52:21.274Z,0.50
2023-05-11T01:53:21.306Z,0.70
2023-05-11T01:54:21.350Z,0.50
2023-05-11T01:55:21.375Z,0.85
2023-05-11T01:56:21.405Z,0.58
2023-05-11T01:57:21.451Z,0.63
2023-05-11T01:58:21.486Z,0.79
2023-05-11T01:59:21.519Z,0.69
2023-05-11T02:00:21.524Z,0.58
2023-05-11T02:01:21.554Z,0.68
2023-05-11T02:02:21.633Z,0.53
2023-05-11T02:03:21.658Z,1.06
2023-05-11T02:04:21.666Z,0.52
2023-05-11T02:05:21.669Z,0.73
2023-05-11T02:06:21.694Z,0.67
2023-05-11T02:07:21.715Z,0.57
2023-05-11T02:08:21.742Z,0.65
2023-05-11T02:09:21.777Z,0.53
2023-05-11T02:10:21.807Z,0.75
2023-05-11T02:11:21.839Z,0.58
2023-05-11T02:12:21.863Z,0.72
2023-05-11T02:13:21.939Z,0.75
2023-05-11T02:14:21.918Z,0.67
2023-05-11T02:15:21.975Z,0.51
2023-05-11T02:16:21.997Z,0.51
2023-05-11T02:17:21.990Z,0.61
2023-05-11T02:18:22.109Z,0.67
2023-05-11T02:19:22.066Z,0.67
2023-05-11T02:20:22.095Z,0.71
2023-05-11T02:21:22.127Z,0.61
2023-05-11T02:22:22.152Z,0.73
2023-05-11T02:23:22.201Z,0.43
2023-05-11T02:24:22.238Z,0.56
2023-05-11T02:25:22.262Z,0.70
2023-05-11T02:26:22.297Z,0.56
2023-05-11T02:27:22.323Z,0.64
2023-05-11T02:28:22.395Z,0.56
2023-05-11T02:29:22.385Z,0.35
2023-05-11T02:30:22.440Z,0.58
2023-05-11T02:31:22.487Z,0.67
2023-05-11T02:32:22.555Z,0.55
2023-05-11T02:33:22.520Z,0.42
2023-05-11T02:34:22.550Z,0.62
2023-05-11T02:35:22.567Z,0.48
2023-05-11T02:36:22.609Z,0.62
2023-05-11T02:37:22.685Z,0.40
2023-05-11T02:38:22.670Z,0.56
2023-05-11T02:39:22.758Z,0.69
2023-05-11T02:40:22.714Z,0.44
2023-05-11T02:41:22.740Z,0.70
2023-05-11T02:42:22.757Z,0.59
2023-05-11T02:43:22.779Z,0.73
2023-05-11T02:44:22.854Z,0.35
2023-05-11T02:45:22.862Z,0.63
2023-05-11T02:46:22.944Z,0.65
2023-05-11T02:47:22.938Z,1.14
2023-05-11T02:48:22.955Z,0.43
2023-05-11T02:49:22.992Z,0.43
2023-05-11T02:50:23.006Z,0.61
2023-05-11T02:51:23.029Z,0.77
2023-05-11T02:52:23.092Z,0.85
2023-05-11T02:53:23.120Z,0.65
2023-05-11T02:54:23.134Z,0.42
2023-05-11T02:55:23.153Z,0.88
2023-05-11T02:56:23.174Z,0.58
2023-05-11T02:57:23.201Z,0.53
2023-05-11T02:58:23.306Z,0.69
2023-05-11T02:59:23.273Z,1.01
2023-05-11T03:00:23.373Z,0.45
2023-05-11T03:01:23.441Z,0.35
2023-05-11T03:02:23.503Z,0.91
2023-05-11T03:03:23.432Z,0.58
2023-05-11T03:04:23.461Z,0.60
2023-05-11T03:05:23.490Z,0.79
2023-05-11T03:06:23.508Z,0.40
2023-05-11T03:07:23.529Z,0.56
2023-05-11T03:08:23.592Z,0.50
2023-05-11T03:09:23.608Z,0.60
2023-05-11T03:10:23.651Z,0.54
2023-05-11T03:11:23.739Z,0.58
2023-05-11T03:12:23.715Z,0.69
2023-05-11T03:13:23.745Z,0.57
2023-05-11T03:14:23.813Z,0.47
2023-05-11T03:15:23.825Z,0.46
2023-05-11T03:16:23.846Z,0.63
2023-05-11T03:17:23.921Z,0.58
2023-05-11T03:18:23.953Z,0.37
2023-05-11T03:19:23.957Z,0.70
2023-05-11T03:20:23.987Z,0.55
2023-05-11T03:21:24.009Z,0.53
2023-05-11T03:22:24.039Z,0.65
2023-05-11T03:23:24.068Z,0.59
2023-05-11T03:24:24.106Z,0.79
2023-05-11T03:25:24.177Z,0.65
2023-05-11T03:26:24.188Z,0.70
2023-05-11T03:27:24.209Z,0.70
2023-05-11T03:28:24.241Z,0.72
2023-05-11T03:29:24.294Z,0.63
2023-05-11T03:30:24.315Z,0.50
2023-05-11T03:31:24.366Z,0.78
2023-05-11T03:32:24.506Z,0.43
2023-05-11T03:33:24.386Z,0.51
2023-05-11T03:34:24.431Z,0.50
2023-05-11T03:35:24.470Z,0.59
2023-05-11T03:36:24.468Z,0.60
2023-05-11T03:37:24.505Z,0.61
2023-05-11T03:38:24.560Z,0.56
2023-05-11T03:39:24.582Z,0.61
2023-05-11T03:40:24.644Z,0.42
2023-05-11T03:41:24.680Z,0.83
2023-05-11T03:42:24.686Z,0.47
2023-05-11T03:43:24.719Z,0.68
2023-05-11T03:44:24.727Z,0.80
2023-05-11T03:45:24.786Z,0.40
2023-05-11T03:46:24.858Z,0.47
2023-05-11T03:47:24.881Z,0.79
2023-05-11T03:48:24.862Z,0.63
2023-05-11T03:49:24.920Z,0.59
2023-05-11T03:50:24.937Z,0.52
2023-05-11T03:51:24.974Z,0.52
2023-05-11T03:52:25.035Z,0.67
2023-05-11T03:53:25.047Z,0.55
2023-05-11T03:54:25.075Z,0.51
2023-05-11T03:55:25.103Z,0.33
2023-05-11T03:56:25.165Z,0.51
2023-05-11T03:57:25.176Z,0.57
2023-05-11T03:58:25.197Z,0.49
2023-05-11T03:59:25.223Z,2.32
2023-05-11T04:00:25.702Z,0.64
2023-05-11T04:01:25.296Z,0.59
2023-05-11T04:02:25.383Z,0.68
2023-05-11T04:03:25.470Z,0.80
2023-05-11T04:04:25.380Z,0.81
2023-05-11T04:05:25.401Z,0.61
2023-05-11T04:06:25.449Z,0.47
2023-05-11T04:07:25.466Z,0.52
2023-05-11T04:08:25.526Z,0.64
2023-05-11T04:09:25.552Z,0.66
2023-05-11T04:10:25.570Z,0.48
2023-05-11T04:11:25.606Z,0.58
2023-05-11T04:12:25.610Z,0.55
2023-05-11T04:13:25.649Z,0.61
2023-05-11T04:14:25.693Z,0.53
2023-05-11T04:15:25.718Z,1.05
2023-05-11T04:16:25.788Z,0.47
2023-05-11T04:17:25.845Z,0.55
2023-05-11T04:18:25.862Z,0.51
2023-05-11T04:19:25.850Z,0.35
2023-05-11T04:20:25.915Z,0.61
2023-05-11T04:21:25.944Z,0.53
2023-05-11T04:22:25.957Z,0.67
2023-05-11T04:23:25.981Z,0.72
2023-05-11T04:24:26.018Z,0.67
2023-05-11T04:25:26.062Z,0.52
2023-05-11T04:26:26.068Z,0.38
2023-05-11T04:27:26.114Z,0.53
2023-05-11T04:28:26.145Z,0.54
2023-05-11T04:29:26.196Z,0.63
2023-05-11T04:30:26.200Z,0.60
2023-05-11T04:31:26.339Z,0.78
2023-05-11T04:32:26.360Z,0.54
2023-05-11T04:33:26.297Z,0.64
2023-05-11T04:34:26.334Z,0.57
2023-05-11T04:35:26.377Z,0.68
2023-05-11T04:36:26.415Z,0.43
2023-05-11T04:37:26.454Z,0.61
2023-05-11T04:38:26.494Z,0.50
2023-05-11T04:39:26.493Z,0.55
2023-05-11T04:40:26.539Z,0.61
2023-05-11T04:41:26.563Z,0.67
2023-05-11T04:42:26.590Z,0.46
2023-05-11T04:43:26.643Z,0.63
2023-05-11T04:44:26.650Z,0.47
2023-05-11T04:45:26.687Z,0.48
2023-05-11T04:46:26.713Z,0.38
2023-05-11T04:47:26.823Z,0.75
2023-05-11T04:48:26.784Z,0.52
2023-05-11T04:49:26.813Z,0.39
2023-05-11T04:50:26.852Z,0.72
2023-05-11T04:51:26.874Z,0.43
2023-05-11T04:52:26.920Z,0.40
2023-05-11T04:53:26.944Z,0.41
2023-05-11T04:54:27.014Z,0.20
2023-05-11T04:55:27.024Z,0.68
2023-05-11T04:56:27.034Z,0.48
2023-05-11T04:57:27.068Z,0.75
2023-05-11T04:58:27.133Z,0.63
2023-05-11T04:59:27.172Z,0.41
2023-05-11T05:00:27.171Z,0.40
2023-05-11T05:01:27.234Z,0.46
2023-05-11T05:02:27.240Z,0.64
2023-05-11T05:03:27.307Z,0.80
2023-05-11T05:04:27.291Z,0.39
2023-05-11T05:05:27.349Z,0.65
2023-05-11T05:06:27.346Z,0.51
2023-05-11T05:07:27.406Z,0.35
2023-05-11T05:08:27.421Z,0.56
2023-05-11T05:09:27.448Z,0.63
2023-05-11T05:10:27.507Z,0.40
2023-05-11T05:11:27.556Z,0.65
2023-05-11T05:12:27.546Z,0.50
2023-05-11T05:13:27.577Z,0.50
2023-05-11T05:14:27.636Z,0.55
2023-05-11T05:15:27.666Z,0.68
2023-05-11T05:16:28.375Z,0.63
2023-05-11T05:17:27.773Z,0.54
2023-05-11T05:18:27.796Z,0.57
2023-05-11T05:19:27.796Z,0.72
2023-05-11T05:20:27.855Z,0.35
2023-05-11T05:21:27.875Z,0.66
2023-05-11T05:22:27.936Z,0.44
2023-05-11T05:23:27.902Z,0.62
2023-05-11T05:24:27.933Z,0.66
2023-05-11T05:25:27.977Z,0.70
2023-05-11T05:26:28.087Z,0.37
2023-05-11T05:27:28.032Z,0.41
2023-05-11T05:28:28.063Z,0.51
2023-05-11T05:29:28.113Z,0.55
2023-05-11T05:30:28.184Z,0.33
2023-05-11T05:31:28.294Z,0.51
2023-05-11T05:32:28.249Z,0.46
2023-05-11T05:33:28.248Z,0.54
2023-05-11T05:34:28.271Z,0.48
2023-05-11T05:35:28.856Z,0.53
2023-05-11T05:36:28.361Z,1.15
2023-05-11T05:37:28.371Z,1.10
2023-05-11T05:38:28.394Z,0.61
2023-05-11T05:39:28.469Z,1.33
2023-05-11T05:40:28.471Z,0.72
2023-05-11T05:41:28.524Z,0.79
2023-05-11T05:42:28.526Z,0.81
2023-05-11T05:43:28.610Z,1.08
2023-05-11T05:44:28.604Z,0.97
2023-05-11T05:45:28.639Z,0.91
2023-05-11T05:46:28.702Z,0.95
2023-05-11T05:47:28.753Z,1.51
2023-05-11T05:48:28.731Z,1.35
2023-05-11T05:49:28.748Z,0.91
2023-05-11T05:50:28.794Z,1.23
2023-05-11T05:51:28.803Z,0.89
2023-05-11T05:52:28.968Z,1.22
2023-05-11T05:53:28.931Z,1.10
2023-05-11T05:54:28.943Z,1.20
2023-05-11T05:55:28.953Z,1.08
2023-05-11T05:56:28.889Z,1.13
2023-05-11T05:57:28.989Z,1.19
2023-05-11T05:58:28.946Z,1.17
2023-05-11T05:59:28.981Z,0.72
2023-05-11T06:00:29.259Z,1.24
2023-05-11T06:01:29.033Z,1.03
2023-05-11T06:02:29.206Z,1.09
2023-05-11T06:03:29.597Z,0.78
2023-05-11T06:04:29.128Z,0.89
2023-05-11T06:05:29.097Z,0.98
2023-05-11T06:06:29.108Z,1.15
2023-05-11T06:07:29.178Z,0.97
2023-05-11T06:08:29.198Z,1.02
2023-05-11T06:09:29.236Z,1.10
2023-05-11T06:10:29.718Z,1.21
2023-05-11T06:11:29.338Z,0.86
2023-05-11T06:12:29.400Z,0.81
2023-05-11T06:13:29.436Z,0.90
2023-05-11T06:14:29.464Z,1.09
2023-05-11T06:15:29.508Z,0.76
2023-05-11T06:16:29.638Z,1.05
2023-05-11T06:17:29.637Z,1.07
2023-05-11T06:18:29.722Z,1.47
2023-05-11T06:19:29.713Z,1.30
2023-05-11T06:20:29.777Z,0.73
2023-05-11T06:21:29.762Z,1.10
2023-05-11T06:22:29.772Z,1.09
2023-05-11T06:23:29.840Z,0.93
2023-05-11T06:24:29.850Z,0.93
2023-05-11T06:25:29.883Z,1.21
2023-05-11T06:26:29.982Z,0.94
2023-05-11T06:27:29.984Z,1.18
2023-05-11T06:28:29.981Z,1.61
2023-05-11T06:29:30.039Z,0.94
2023-05-11T06:30:30.102Z,0.94
2023-05-11T06:31:30.193Z,1.28
2023-05-11T06:32:30.234Z,1.02
2023-05-11T06:33:30.235Z,1.01
2023-05-11T06:34:30.416Z,1.14
2023-05-11T06:35:30.400Z,1.26
2023-05-11T06:36:30.450Z,1.13
2023-05-11T06:37:30.512Z,1.37
2023-05-11T06:38:30.502Z,1.43
2023-05-11T06:39:30.552Z,2.03
2023-05-11T06:40:30.762Z,1.22
2023-05-11T06:41:30.621Z,1.37
2023-05-11T06:42:30.661Z,1.28
2023-05-11T06:43:30.698Z,1.10
2023-05-11T06:44:30.739Z,0.96
2023-05-11T06:45:30.948Z,1.49
2023-05-11T06:46:30.889Z,1.29
2023-05-11T06:47:30.938Z,1.02
2023-05-11T06:48:30.969Z,1.53
2023-05-11T06:49:31.019Z,1.03
2023-05-11T06:50:31.229Z,1.38
2023-05-11T06:51:31.119Z,1.01
2023-05-11T06:52:31.218Z,1.15
2023-05-11T06:53:31.200Z,1.48
2023-05-11T06:54:31.248Z,0.88
2023-05-11T06:55:31.310Z,1.35
2023-05-11T06:56:31.362Z,1.00
2023-05-11T06:57:31.376Z,1.60
2023-05-11T06:58:31.428Z,1.10
2023-05-11T06:59:31.476Z,1.27
2023-05-11T07:00:31.548Z,1.11
2023-05-11T07:01:31.633Z,0.88
2023-05-11T07:02:31.656Z,1.55
2023-05-11T07:03:31.616Z,1.98
2023-05-11T07:04:31.647Z,1.68
2023-05-11T07:05:31.667Z,1.22
2023-05-11T07:06:31.646Z,1.26
2023-05-11T07:07:31.654Z,1.41
2023-05-11T07:08:31.684Z,1.34
2023-05-11T07:09:31.682Z,0.99
2023-05-11T07:10:31.702Z,1.26
2023-05-11T07:11:31.706Z,1.49
2023-05-11T07:12:31.706Z,1.34
2023-05-11T07:13:31.731Z,1.02
2023-05-11T07:14:31.753Z,1.05
2023-05-11T07:15:31.774Z,0.95
2023-05-11T07:16:31.794Z,1.66
2023-05-11T07:17:31.847Z,1.04
2023-05-11T07:18:31.961Z,1.40
2023-05-11T07:19:31.913Z,1.05
2023-05-11T07:20:31.922Z,1.47
2023-05-11T07:21:31.945Z,1.17
2023-05-11T07:22:32.008Z,1.20
2023-05-11T07:23:31.990Z,1.31
2023-05-11T07:24:31.993Z,1.02
2023-05-11T07:25:31.999Z,1.15
2023-05-11T07:26:32.026Z,1.09
2023-05-11T07:27:32.052Z,1.10
2023-05-11T07:28:32.108Z,1.12
2023-05-11T07:29:32.097Z,0.93
2023-05-11T07:30:32.119Z,1.41
2023-05-11T07:31:32.212Z,1.14
2023-05-11T07:32:32.193Z,1.14
2023-05-11T07:33:32.202Z,1.65
2023-05-11T07:34:32.216Z,1.42
2023-05-11T07:35:32.250Z,1.75
2023-05-11T07:36:32.773Z,1.42
2023-05-11T07:37:32.276Z,1.50
2023-05-11T07:38:32.292Z,1.57
2023-05-11T07:39:32.320Z,1.79
2023-05-11T07:40:32.348Z,1.84
2023-05-11T07:41:32.829Z,1.74
2023-05-11T07:42:32.394Z,1.39
2023-05-11T07:43:32.434Z,1.63
2023-05-11T07:44:32.499Z,1.24
2023-05-11T07:45:32.473Z,1.34
2023-05-11T07:46:32.886Z,1.26
2023-05-11T07:47:34.459Z,0.90
2023-05-11T07:48:32.633Z,1.26
2023-05-11T07:49:42.851Z,1.08
2023-05-11T07:50:33.566Z,0.78
2023-05-11T07:51:32.561Z,1.11
2023-05-11T07:52:32.572Z,1.10
2023-05-11T07:53:32.535Z,0.90
2023-05-11T07:54:32.541Z,0.84
2023-05-11T07:55:32.518Z,0.92
2023-05-11T07:56:32.521Z,1.00
2023-05-11T07:57:32.551Z,0.66
2023-05-11T07:58:32.507Z,0.97
2023-05-11T07:59:32.500Z,0.98
2023-05-11T08:00:32.520Z,0.72
2023-05-11T08:01:32.498Z,0.77
2023-05-11T08:02:32.573Z,0.76
2023-05-11T08:03:32.499Z,0.92
2023-05-11T08:04:32.539Z,0.98
2023-05-11T08:05:32.505Z,1.02
2023-05-11T08:06:32.457Z,0.95
2023-05-11T08:07:32.460Z,1.04
2023-05-11T08:08:32.440Z,1.16
2023-05-11T08:09:32.431Z,1.03
2023-05-11T08:10:32.441Z,1.14
2023-05-11T08:11:32.444Z,0.70
2023-05-11T08:12:32.507Z,0.84
2023-05-11T08:13:32.535Z,0.83
2023-05-11T08:14:32.550Z,0.77
2023-05-11T08:15:32.571Z,0.74
2023-05-11T08:16:32.655Z,0.81
2023-05-11T08:17:32.709Z,0.74
2023-05-11T08:18:32.674Z,0.44
2023-05-11T08:19:32.698Z,0.72
2023-05-11T08:20:32.768Z,0.72
2023-05-11T08:21:32.808Z,0.77
2023-05-11T08:22:32.813Z,0.54
2023-05-11T08:23:32.821Z,0.59
2023-05-11T08:24:32.852Z,0.91
2023-05-11T08:25:32.898Z,0.48
2023-05-11T08:26:33.241Z,0.71
2023-05-11T08:27:32.986Z,0.79
2023-05-11T08:28:33.012Z,0.55
2023-05-11T08:29:33.099Z,0.76
2023-05-11T08:30:33.059Z,0.92
2023-05-11T08:31:33.186Z,0.98
2023-05-11T08:32:40.592Z,0.75
2023-05-11T08:33:38.131Z,1.38
2023-05-11T08:34:33.175Z,1.27
2023-05-11T08:35:33.079Z,1.34
2023-05-11T08:36:33.061Z,1.20
2023-05-11T08:37:33.102Z,1.09
2023-05-11T08:38:33.053Z,1.15
2023-05-11T08:39:46.022Z,1.54
2023-05-11T08:40:34.040Z,1.49
2023-05-11T08:41:33.053Z,1.94
2023-05-11T08:42:33.023Z,1.55
2023-05-11T08:43:33.107Z,1.50
2023-05-11T08:44:33.011Z,1.68
2023-05-11T08:45:33.048Z,1.59
2023-05-11T08:46:33.006Z,1.65
2023-05-11T08:47:33.045Z,1.73
2023-05-11T08:48:33.052Z,1.63
2023-05-11T08:49:33.020Z,1.52
2023-05-11T08:50:33.035Z,1.77
2023-05-11T08:51:33.346Z,1.37
2023-05-11T08:52:33.081Z,1.46
2023-05-11T08:53:33.165Z,1.12
2023-05-11T08:54:33.157Z,1.86
2023-05-11T08:55:33.183Z,1.17
2023-05-11T08:56:33.250Z,1.40
2023-05-11T08:57:33.243Z,1.31
2023-05-11T08:58:33.278Z,1.43
2023-05-11T08:59:33.371Z,1.16
2023-05-11T09:00:33.296Z,1.26
2023-05-11T09:01:33.382Z,1.31
2023-05-11T09:02:33.484Z,1.07
2023-05-11T09:03:33.338Z,1.16
2023-05-11T09:04:33.484Z,1.52
2023-05-11T09:05:33.440Z,1.65
2023-05-11T09:06:33.408Z,1.28
2023-05-11T09:07:33.414Z,1.50
2023-05-11T09:08:33.440Z,1.41
2023-05-11T09:09:33.480Z,1.25
2023-05-11T09:10:33.458Z,1.05
2023-05-11T09:11:33.474Z,1.28
2023-05-11T09:12:33.499Z,0.97
2023-05-11T09:13:33.518Z,1.19
2023-05-11T09:14:33.520Z,1.28
2023-05-11T09:15:37.285Z,1.11
2023-05-11T09:16:37.333Z,1.47
2023-05-11T09:17:33.571Z,1.40
2023-05-11T09:18:33.529Z,1.12
2023-05-11T09:19:33.512Z,1.12
2023-05-11T09:20:33.531Z,1.16
2023-05-11T09:21:33.507Z,1.23
2023-05-11T09:22:36.075Z,1.13
2023-05-11T09:23:33.504Z,1.37
2023-05-11T09:24:34.314Z,0.92
2023-05-11T09:25:33.482Z,0.94
2023-05-11T09:26:33.468Z,1.21
2023-05-11T09:27:33.452Z,1.37
2023-05-11T09:29:33.515Z,1.58
2023-05-11T09:30:33.446Z,1.29
2023-05-11T09:31:33.463Z,0.91
2023-05-11T09:32:33.462Z,1.45
2023-05-11T09:33:33.495Z,1.56
2023-05-11T09:34:33.414Z,1.69
2023-05-11T09:35:33.407Z,1.55
2023-05-11T09:36:33.412Z,1.52
2023-05-11T09:37:33.443Z,1.41
2023-05-11T09:38:33.389Z,1.63
2023-05-11T09:40:34.163Z,1.54
2023-05-11T09:41:35.854Z,1.34
2023-05-11T09:42:33.472Z,1.39
2023-05-11T09:43:33.499Z,1.15
2023-05-11T09:44:33.507Z,1.52
2023-05-11T09:45:33.528Z,0.97
2023-05-11T09:46:33.574Z,1.22
2023-05-11T09:47:33.596Z,1.20
2023-05-11T09:48:33.612Z,1.03
2023-05-11T09:49:33.602Z,1.05
2023-05-11T09:50:33.588Z,1.36
2023-05-11T09:51:33.654Z,1.02
2023-05-11T09:52:33.615Z,0.99
2023-05-11T09:53:33.654Z,0.89
2023-05-11T09:54:33.662Z,0.89
2023-05-11T09:55:33.700Z,1.08
2023-05-11T09:56:33.717Z,1.27
2023-05-11T09:57:33.706Z,0.79
2023-05-11T09:58:33.723Z,0.98
2023-05-11T09:59:33.763Z,0.85
2023-05-11T10:00:33.793Z,1.27
2023-05-11T10:01:33.865Z,1.14
2023-05-11T10:02:33.900Z,0.73
2023-05-11T10:03:33.925Z,0.77
2023-05-11T10:04:34.007Z,0.92
2023-05-11T10:05:33.935Z,0.93
2023-05-11T10:06:33.960Z,1.17
2023-05-11T10:07:34.019Z,0.97
2023-05-11T10:08:34.057Z,0.91
2023-05-11T10:09:34.075Z,0.87
2023-05-11T10:10:34.098Z,0.87
2023-05-11T10:11:34.174Z,1.21
2023-05-11T10:12:34.161Z,0.97
2023-05-11T10:13:34.197Z,1.18
2023-05-11T10:14:34.212Z,1.15
2023-05-11T10:15:34.242Z,1.17
2023-05-11T10:16:34.303Z,0.74
2023-05-11T10:17:34.416Z,1.06
2023-05-11T10:18:34.373Z,1.04
2023-05-11T10:19:34.372Z,0.96
2023-05-11T10:20:34.439Z,0.78
2023-05-11T10:21:34.470Z,0.68
2023-05-11T10:22:34.569Z,0.78
2023-05-11T10:23:34.583Z,0.47
2023-05-11T10:24:34.609Z,0.82
2023-05-11T10:25:34.681Z,1.44
2023-05-11T10:26:34.737Z,1.28
2023-05-11T10:27:34.738Z,1.40
2023-05-11T10:28:34.892Z,1.44
2023-05-11T10:29:34.814Z,2.24
2023-05-11T10:30:34.876Z,1.20
2023-05-11T10:31:34.906Z,1.23
2023-05-11T10:32:34.884Z,1.89
2023-05-11T10:33:34.862Z,1.26
2023-05-11T10:34:34.870Z,1.19
2023-05-11T10:35:34.880Z,1.73
2023-05-11T10:36:34.954Z,1.40
2023-05-11T10:37:35.869Z,1.31
2023-05-11T10:38:34.866Z,1.58
2023-05-11T10:39:34.886Z,1.20
2023-05-11T10:40:34.860Z,1.08
2023-05-11T10:41:34.847Z,1.11
2023-05-11T10:42:34.843Z,1.12
2023-05-11T10:43:34.869Z,1.04
2023-05-11T10:44:34.834Z,1.32
2023-05-11T10:45:34.841Z,0.86
2023-05-11T10:46:34.847Z,1.46
2023-05-11T10:47:34.860Z,1.12
2023-05-11T10:48:34.806Z,1.28
2023-05-11T10:49:34.819Z,1.13
2023-05-11T10:50:34.799Z,1.17
2023-05-11T10:51:34.806Z,0.90
2023-05-11T10:52:34.776Z,1.01
2023-05-11T10:53:34.796Z,1.14
2023-05-11T10:54:34.759Z,1.20
2023-05-11T10:55:34.755Z,1.03
2023-05-11T10:56:34.821Z,0.95
2023-05-11T10:57:34.850Z,1.00
2023-05-11T10:58:34.856Z,0.82
2023-05-11T10:59:34.901Z,0.99
2023-05-11T11:00:35.029Z,0.98
2023-05-11T11:01:35.056Z,1.17
2023-05-11T11:02:35.016Z,0.98
2023-05-11T11:03:35.052Z,0.96
2023-05-11T11:04:35.100Z,1.10
2023-05-11T11:05:35.140Z,0.90
2023-05-11T11:06:35.145Z,0.84
2023-05-11T11:07:35.151Z,1.00
2023-05-11T11:08:35.223Z,0.77
2023-05-11T11:09:35.253Z,1.98
2023-05-11T11:10:35.253Z,1.42
2023-05-11T11:11:35.298Z,1.19
2023-05-11T11:12:35.330Z,1.43
2023-05-11T11:13:35.367Z,1.24
2023-05-11T11:14:35.408Z,1.19
2023-05-11T11:15:35.441Z,1.68
2023-05-11T11:16:35.563Z,1.43
2023-05-11T11:17:35.859Z,1.20
2023-05-11T11:18:35.547Z,1.46
2023-05-11T11:19:35.513Z,1.76
2023-05-11T11:20:35.577Z,2.65
2023-05-11T11:21:35.552Z,2.23
2023-05-11T11:22:35.638Z,2.76
2023-05-11T11:23:35.596Z,2.32
2023-05-11T11:24:35.631Z,2.46
2023-05-11T11:25:35.639Z,2.16
2023-05-11T11:26:35.682Z,3.59
2023-05-11T11:27:35.685Z,2.34
2023-05-11T11:28:35.726Z,3.15
2023-05-11T11:29:35.753Z,2.94
2023-05-11T11:30:35.695Z,3.25
2023-05-11T11:31:35.830Z,2.58
2023-05-11T11:32:35.904Z,2.49
2023-05-11T11:33:35.742Z,3.13
2023-05-11T11:34:35.755Z,3.24
2023-05-11T11:35:35.770Z,3.24
2023-05-11T11:36:35.787Z,3.04
2023-05-11T11:37:35.793Z,2.85
2023-05-11T11:38:35.835Z,2.71
2023-05-11T11:39:35.800Z,3.66
2023-05-11T11:40:43.195Z,2.85
2023-05-11T11:41:36.805Z,2.75
2023-05-11T11:42:35.817Z,2.97
2023-05-11T11:43:37.751Z,2.92
2023-05-11T11:44:35.787Z,2.79
2023-05-11T11:45:35.806Z,3.05
2023-05-11T11:46:35.813Z,2.49
2023-05-11T11:47:35.810Z,2.93
2023-05-11T11:48:35.803Z,2.80
2023-05-11T11:49:35.783Z,2.88
2023-05-11T11:50:35.758Z,2.97
2023-05-11T11:51:35.760Z,2.36
2023-05-11T11:52:35.751Z,2.54
2023-05-11T11:53:35.766Z,2.74
2023-05-11T11:54:35.769Z,2.89
2023-05-11T11:55:35.743Z,2.91
2023-05-11T11:56:35.717Z,2.56
2023-05-11T11:57:35.744Z,2.52
2023-05-11T11:58:35.720Z,2.86
2023-05-11T11:59:35.707Z,2.58
2023-05-11T12:00:35.712Z,2.62
2023-05-11T12:01:35.687Z,3.13
2023-05-11T12:02:35.750Z,2.67
2023-05-11T12:03:35.831Z,2.94
2023-05-11T12:04:35.694Z,3.33
2023-05-11T12:05:35.680Z,2.68
2023-05-11T12:06:35.686Z,3.16
2023-05-11T12:07:35.693Z,2.88
2023-05-11T12:08:35.760Z,2.95
2023-05-11T12:09:35.802Z,2.74
2023-05-11T12:10:35.789Z,2.85
2023-05-11T12:11:35.796Z,2.87
2023-05-11T12:12:35.829Z,2.32
2023-05-11T12:13:35.859Z,2.72
2023-05-11T12:14:35.906Z,2.84
2023-05-11T12:15:35.914Z,2.83
2023-05-11T12:16:36.014Z,2.94
2023-05-11T12:17:36.000Z,3.13
2023-05-11T12:18:36.022Z,2.96
2023-05-11T12:19:36.037Z,2.99
2023-05-11T12:20:36.052Z,4.24
2023-05-11T12:21:36.107Z,3.01
2023-05-11T12:22:36.163Z,2.90
2023-05-11T12:23:36.206Z,2.83
2023-05-11T12:24:36.247Z,2.82
2023-05-11T12:25:36.296Z,2.95
2023-05-11T12:26:36.330Z,3.57
2023-05-11T12:27:36.452Z,3.15
2023-05-11T12:28:36.446Z,3.06
2023-05-11T12:29:36.475Z,3.10
2023-05-11T12:30:36.531Z,3.01
2023-05-11T12:31:36.607Z,2.96
2023-05-11T12:32:36.659Z,3.30
2023-05-11T12:33:36.652Z,2.98
2023-05-11T12:34:36.672Z,3.29
2023-05-11T12:35:36.740Z,2.98
2023-05-11T12:36:36.763Z,3.24
2023-05-11T12:37:36.929Z,3.54
2023-05-11T12:38:36.826Z,2.91
2023-05-11T12:39:36.857Z,2.99
2023-05-11T12:40:36.880Z,3.28
2023-05-11T12:41:36.903Z,3.75
2023-05-11T12:42:36.969Z,3.42
2023-05-11T12:43:36.981Z,3.38
2023-05-11T12:44:37.017Z,3.14
2023-05-11T12:45:37.056Z,3.18
2023-05-11T12:46:37.240Z,3.28
2023-05-11T12:47:37.182Z,3.49
2023-05-11T12:48:37.132Z,3.16
2023-05-11T12:49:37.160Z,2.59
2023-05-11T12:50:37.213Z,3.20
2023-05-11T12:51:37.236Z,3.97
2023-05-11T12:52:37.261Z,3.26
2023-05-11T12:53:37.296Z,2.88
2023-05-11T12:54:37.326Z,2.99
2023-05-11T12:55:37.364Z,2.92
2023-05-11T12:56:37.427Z,3.28
2023-05-11T12:57:37.404Z,3.57
2023-05-11T12:58:37.417Z,3.58
2023-05-11T12:59:37.499Z,3.49
2023-05-11T13:00:37.512Z,3.40
2023-05-11T13:01:37.686Z,3.50
2023-05-11T13:02:37.572Z,3.50
2023-05-11T13:03:37.669Z,3.98
2023-05-11T13:04:37.615Z,3.43
2023-05-11T13:05:37.603Z,3.73
2023-05-11T13:06:37.618Z,3.43
2023-05-11T13:07:37.633Z,3.06
2023-05-11T13:08:37.662Z,2.88
2023-05-11T13:09:37.675Z,2.70
2023-05-11T13:10:37.723Z,3.29
2023-05-11T13:11:37.769Z,3.04
2023-05-11T13:12:37.773Z,3.45
2023-05-11T13:13:37.835Z,3.27
2023-05-11T13:14:37.822Z,3.43
2023-05-11T13:15:37.868Z,3.00
2023-05-11T13:16:37.894Z,3.77
2023-05-11T13:17:37.928Z,3.83
2023-05-11T13:18:37.963Z,3.31
2023-05-11T13:19:37.909Z,3.20
2023-05-11T13:20:37.929Z,3.27